createdAt,value
2023-03-13T00:00:17.342Z,993.55
2023-03-13T00:01:17.334Z,993.57
2023-03-13T00:02:17.466Z,993.55
2023-03-13T00:03:17.316Z,993.49
2023-03-13T00:04:17.296Z,993.49
2023-03-13T00:05:17.340Z,993.49
2023-03-13T00:06:17.323Z,993.49
2023-03-13T00:07:17.250Z,993.46
2023-03-13T00:08:17.273Z,993.43
2023-03-13T00:09:17.236Z,993.38
2023-03-13T00:10:17.222Z,993.36
2023-03-13T00:11:17.211Z,993.35
2023-03-13T00:12:17.178Z,993.35
2023-03-13T00:13:17.186Z,993.33
2023-03-13T00:14:17.152Z,993.35
2023-03-13T00:15:17.167Z,993.31
2023-03-13T00:16:17.126Z,993.32
2023-03-13T00:17:17.129Z,993.32
2023-03-13T00:18:17.214Z,993.29
2023-03-13T00:19:17.100Z,993.23
2023-03-13T00:20:17.698Z,993.22
2023-03-13T00:21:17.763Z,993.22
2023-03-13T00:22:17.052Z,993.16
2023-03-13T00:23:17.057Z,993.12
2023-03-13T00:24:17.018Z,993.11
2023-03-13T00:25:17.018Z,993.06
2023-03-13T00:26:17.005Z,993.02
2023-03-13T00:27:16.987Z,993.00
2023-03-13T00:28:16.966Z,992.98
2023-03-13T00:29:16.989Z,992.98
2023-03-13T00:30:16.946Z,992.91
2023-03-13T00:31:17.852Z,992.91
2023-03-13T00:32:17.318Z,992.90
2023-03-13T00:33:16.907Z,992.85
2023-03-13T00:34:16.918Z,992.81
2023-03-13T00:35:17.036Z,992.79
2023-03-13T00:36:16.887Z,992.76
2023-03-13T00:37:17.315Z,992.78
2023-03-13T00:38:16.835Z,992.75
2023-03-13T00:39:16.969Z,992.77
2023-03-13T00:40:17.033Z,992.71
2023-03-13T00:41:16.856Z,992.72
2023-03-13T00:42:16.951Z,992.69
2023-03-13T00:43:17.235Z,992.68
2023-03-13T00:44:17.086Z,992.70
2023-03-13T00:45:16.833Z,992.67
2023-03-13T00:46:16.830Z,992.66
2023-03-13T00:47:16.787Z,992.68
2023-03-13T00:48:16.715Z,992.68
2023-03-13T00:49:16.760Z,992.63
2023-03-13T00:50:16.766Z,992.59
2023-03-13T00:51:16.991Z,992.59
2023-03-13T00:52:16.756Z,992.54
2023-03-13T00:53:16.847Z,992.52
2023-03-13T00:54:16.915Z,992.52
2023-03-13T00:55:16.616Z,992.50
2023-03-13T00:56:16.703Z,992.49
2023-03-13T00:57:16.593Z,992.50
2023-03-13T00:58:16.575Z,992.52
2023-03-13T00:59:16.574Z,992.47
2023-03-13T01:00:16.559Z,992.46
2023-03-13T01:01:16.636Z,992.49
2023-03-13T01:02:16.743Z,992.50
2023-03-13T01:03:16.737Z,992.48
2023-03-13T01:04:16.526Z,992.46
2023-03-13T01:05:17.204Z,992.45
2023-03-13T01:06:16.598Z,992.42
2023-03-13T01:07:16.489Z,992.39
2023-03-13T01:08:16.449Z,992.36
2023-03-13T01:09:16.500Z,992.36
2023-03-13T01:10:16.507Z,992.30
2023-03-13T01:11:16.411Z,992.27
2023-03-13T01:12:16.413Z,992.24
2023-03-13T01:13:16.423Z,992.18
2023-03-13T01:14:16.393Z,992.17
2023-03-13T01:15:16.364Z,992.14
2023-03-13T01:16:16.601Z,992.12
2023-03-13T01:17:16.330Z,992.11
2023-03-13T01:18:16.323Z,992.09
2023-03-13T01:19:16.322Z,992.01
2023-03-13T01:20:16.301Z,992.02
2023-03-13T01:21:16.301Z,992.04
2023-03-13T01:22:16.291Z,992.01
2023-03-13T01:23:16.263Z,991.90
2023-03-13T01:24:16.274Z,991.92
2023-03-13T01:25:16.243Z,991.92
2023-03-13T01:26:16.250Z,991.91
2023-03-13T01:27:16.208Z,991.83
2023-03-13T01:28:16.202Z,991.83
2023-03-13T01:29:16.194Z,991.76
2023-03-13T01:30:16.174Z,991.75
2023-03-13T01:31:16.286Z,991.72
2023-03-13T01:32:16.158Z,991.71
2023-03-13T01:33:16.123Z,991.69
2023-03-13T01:34:16.132Z,991.68
2023-03-13T01:35:16.096Z,991.67
2023-03-13T01:36:16.161Z,991.66
2023-03-13T01:37:16.076Z,991.65
2023-03-13T01:38:16.055Z,991.63
2023-03-13T01:39:16.087Z,991.56
2023-03-13T01:40:16.051Z,991.54
2023-03-13T01:41:16.015Z,991.50
2023-03-13T01:42:16.009Z,991.50
2023-03-13T01:43:26.188Z,991.54
2023-03-13T01:44:16.996Z,991.52
2023-03-13T01:45:15.964Z,991.50
2023-03-13T01:46:16.012Z,991.49
2023-03-13T01:47:15.935Z,991.48
2023-03-13T01:48:15.924Z,991.45
2023-03-13T01:49:15.934Z,991.45
2023-03-13T01:50:15.899Z,991.44
2023-03-13T01:51:15.894Z,991.39
2023-03-13T01:52:15.878Z,991.36
2023-03-13T01:53:15.857Z,991.34
2023-03-13T01:54:15.864Z,991.32
2023-03-13T01:55:15.824Z,991.32
2023-03-13T01:56:15.814Z,991.27
2023-03-13T01:57:15.805Z,991.32
2023-03-13T01:58:15.795Z,991.29
2023-03-13T01:59:15.809Z,991.29
2023-03-13T02:00:15.776Z,991.26
2023-03-13T02:01:15.796Z,991.24
2023-03-13T02:02:15.735Z,991.21
2023-03-13T02:03:15.755Z,991.19
2023-03-13T02:04:15.706Z,991.14
2023-03-13T02:05:15.705Z,991.14
2023-03-13T02:06:15.675Z,991.09
2023-03-13T02:07:15.673Z,991.10
2023-03-13T02:08:15.659Z,991.07
2023-03-13T02:09:15.668Z,991.01
2023-03-13T02:10:15.649Z,990.98
2023-03-13T02:11:15.619Z,991.04
2023-03-13T02:12:15.605Z,990.98
2023-03-13T02:13:15.587Z,991.07
2023-03-13T02:14:15.815Z,991.03
2023-03-13T02:15:15.586Z,991.03
2023-03-13T02:16:15.576Z,991.02
2023-03-13T02:17:15.542Z,990.97
2023-03-13T02:18:15.514Z,990.95
2023-03-13T02:19:15.505Z,990.90
2023-03-13T02:20:15.505Z,990.91
2023-03-13T02:21:15.474Z,990.86
2023-03-13T02:22:15.464Z,990.84
2023-03-13T02:23:15.454Z,990.80
2023-03-13T02:24:15.438Z,990.80
2023-03-13T02:25:15.445Z,990.83
2023-03-13T02:26:15.404Z,990.83
2023-03-13T02:27:15.415Z,990.82
2023-03-13T02:28:15.386Z,990.84
2023-03-13T02:29:15.374Z,990.76
2023-03-13T02:30:15.379Z,990.80
2023-03-13T02:31:15.376Z,990.78
2023-03-13T02:32:15.327Z,990.80
2023-03-13T02:33:15.328Z,990.76
2023-03-13T02:34:15.326Z,990.72
2023-03-13T02:35:15.306Z,990.69
2023-03-13T02:36:15.275Z,990.65
2023-03-13T02:37:15.265Z,990.65
2023-03-13T02:38:15.258Z,990.63
2023-03-13T02:39:15.265Z,990.61
2023-03-13T02:40:15.252Z,990.59
2023-03-13T02:41:15.222Z,990.63
2023-03-13T02:42:15.193Z,990.58
2023-03-13T02:43:15.184Z,990.53
2023-03-13T02:44:15.175Z,990.49
2023-03-13T02:45:15.175Z,990.42
2023-03-13T02:46:15.188Z,990.39
2023-03-13T02:47:15.136Z,990.37
2023-03-13T02:48:15.117Z,990.37
2023-03-13T02:49:15.108Z,990.27
2023-03-13T02:50:15.110Z,990.22
2023-03-13T02:51:15.086Z,990.21
2023-03-13T02:52:15.072Z,990.16
2023-03-13T02:53:15.061Z,990.16
2023-03-13T02:54:15.042Z,990.16
2023-03-13T02:55:15.049Z,990.14
2023-03-13T02:56:15.078Z,990.16
2023-03-13T02:57:15.011Z,990.08
2023-03-13T02:58:14.983Z,990.10
2023-03-13T02:59:14.980Z,990.09
2023-03-13T03:00:14.990Z,990.13
2023-03-13T03:01:15.041Z,990.11
2023-03-13T03:02:14.945Z,990.11
2023-03-13T03:03:14.944Z,990.11
2023-03-13T03:04:14.967Z,990.13
2023-03-13T03:05:14.891Z,990.07
2023-03-13T03:06:14.895Z,990.05
2023-03-13T03:07:14.872Z,990.08
2023-03-13T03:08:14.854Z,990.08
2023-03-13T03:09:14.839Z,990.06
2023-03-13T03:10:14.849Z,990.02
2023-03-13T03:11:14.841Z,989.99
2023-03-13T03:12:14.812Z,990.02
2023-03-13T03:13:14.792Z,989.99
2023-03-13T03:14:14.769Z,989.96
2023-03-13T03:15:14.781Z,989.98
2023-03-13T03:16:14.795Z,990.00
2023-03-13T03:17:14.793Z,990.00
2023-03-13T03:18:14.725Z,989.97
2023-03-13T03:19:14.714Z,989.97
2023-03-13T03:20:14.689Z,990.00
2023-03-13T03:21:14.708Z,990.00
2023-03-13T03:22:14.687Z,990.02
2023-03-13T03:23:14.667Z,990.02
2023-03-13T03:24:14.637Z,990.01
2023-03-13T03:25:14.630Z,990.00
2023-03-13T03:26:14.633Z,990.05
2023-03-13T03:27:14.597Z,989.94
2023-03-13T03:28:14.589Z,989.98
2023-03-13T03:29:14.579Z,989.96
2023-03-13T03:30:14.564Z,989.95
2023-03-13T03:31:14.607Z,989.95
2023-03-13T03:32:14.524Z,989.95
2023-03-13T03:33:14.516Z,989.95
2023-03-13T03:34:14.508Z,989.92
2023-03-13T03:35:14.499Z,989.92
2023-03-13T03:36:14.583Z,989.85
2023-03-13T03:37:14.484Z,989.88
2023-03-13T03:38:14.444Z,989.83
2023-03-13T03:39:14.433Z,989.85
2023-03-13T03:40:14.423Z,989.81
2023-03-13T03:41:14.438Z,989.77
2023-03-13T03:42:14.392Z,989.76
2023-03-13T03:43:14.384Z,989.70
2023-03-13T03:44:14.369Z,989.71
2023-03-13T03:45:14.359Z,989.67
2023-03-13T03:46:14.436Z,989.70
2023-03-13T03:47:14.466Z,989.72
2023-03-13T03:48:14.312Z,989.74
2023-03-13T03:49:14.298Z,989.71
2023-03-13T03:50:14.282Z,989.61
2023-03-13T03:51:14.293Z,989.55
2023-03-13T03:52:14.262Z,989.47
2023-03-13T03:53:14.244Z,989.52
2023-03-13T03:54:14.223Z,989.58
2023-03-13T03:55:14.215Z,989.60
2023-03-13T03:56:14.224Z,989.56
2023-03-13T03:57:14.194Z,989.63
2023-03-13T03:58:14.175Z,989.59
2023-03-13T03:59:14.167Z,989.63
2023-03-13T04:00:14.166Z,989.61
2023-03-13T04:01:14.150Z,989.60
2023-03-13T04:02:14.213Z,989.58
2023-03-13T04:03:14.172Z,989.49
2023-03-13T04:04:14.098Z,989.40
2023-03-13T04:05:14.095Z,989.49
2023-03-13T04:06:14.092Z,989.48
2023-03-13T04:07:14.058Z,989.49
2023-03-13T04:08:14.050Z,989.49
2023-03-13T04:09:14.038Z,989.52
2023-03-13T04:10:14.054Z,989.51
2023-03-13T04:11:14.039Z,989.52
2023-03-13T04:12:13.988Z,989.46
2023-03-13T04:13:13.990Z,989.47
2023-03-13T04:14:13.971Z,989.45
2023-03-13T04:15:13.951Z,989.42
2023-03-13T04:16:13.976Z,989.47
2023-03-13T04:17:13.989Z,989.52
2023-03-13T04:18:13.911Z,989.48
2023-03-13T04:19:13.899Z,989.49
2023-03-13T04:20:13.884Z,989.42
2023-03-13T04:21:13.891Z,989.42
2023-03-13T04:22:13.870Z,989.38
2023-03-13T04:23:13.845Z,989.40
2023-03-13T04:24:13.830Z,989.35
2023-03-13T04:25:13.819Z,989.30
2023-03-13T04:26:13.821Z,989.20
2023-03-13T04:27:13.790Z,989.09
2023-03-13T04:28:13.803Z,989.03
2023-03-13T04:29:13.759Z,988.98
2023-03-13T04:30:13.759Z,989.07
2023-03-13T04:31:13.840Z,989.13
2023-03-13T04:32:13.722Z,989.15
2023-03-13T04:33:13.721Z,989.19
2023-03-13T04:34:13.692Z,989.20
2023-03-13T04:35:13.800Z,989.21
2023-03-13T04:36:13.738Z,989.24
2023-03-13T04:37:13.662Z,989.21
2023-03-13T04:38:13.644Z,989.22
2023-03-13T04:39:13.645Z,989.19
2023-03-13T04:40:13.614Z,989.20
2023-03-13T04:41:13.605Z,989.21
2023-03-13T04:42:13.612Z,989.15
2023-03-13T04:43:13.570Z,989.12
2023-03-13T04:44:13.559Z,989.07
2023-03-13T04:45:13.551Z,989.05
2023-03-13T04:46:13.566Z,988.99
2023-03-13T04:47:13.541Z,988.98
2023-03-13T04:48:13.503Z,988.94
2023-03-13T04:49:13.491Z,988.92
2023-03-13T04:50:13.493Z,988.84
2023-03-13T04:51:13.500Z,988.88
2023-03-13T04:52:13.469Z,988.93
2023-03-13T04:53:13.439Z,988.85
2023-03-13T04:54:13.419Z,988.86
2023-03-13T04:55:13.410Z,988.86
2023-03-13T04:56:13.398Z,988.86
2023-03-13T04:57:13.399Z,988.85
2023-03-13T04:58:13.370Z,988.85
2023-03-13T04:59:13.359Z,988.87
2023-03-13T05:00:13.339Z,988.79
2023-03-13T05:01:13.382Z,988.69
2023-03-13T05:02:13.339Z,988.70
2023-03-13T05:03:13.302Z,988.71
2023-03-13T05:04:13.293Z,988.64
2023-03-13T05:05:13.351Z,988.67
2023-03-13T05:06:13.261Z,988.65
2023-03-13T05:07:13.291Z,988.59
2023-03-13T05:08:13.248Z,988.51
2023-03-13T05:09:13.263Z,988.45
2023-03-13T05:10:13.211Z,988.54
2023-03-13T05:11:13.218Z,988.52
2023-03-13T05:12:13.199Z,988.45
2023-03-13T05:13:13.181Z,988.39
2023-03-13T05:14:13.179Z,988.35
2023-03-13T05:15:13.162Z,988.36
2023-03-13T05:16:13.177Z,988.44
2023-03-13T05:17:13.131Z,988.52
2023-03-13T05:18:13.110Z,988.55
2023-03-13T05:19:13.092Z,988.59
2023-03-13T05:20:13.088Z,988.57
2023-03-13T05:21:13.061Z,988.56
2023-03-13T05:22:13.080Z,988.55
2023-03-13T05:23:13.049Z,988.53
2023-03-13T05:24:13.021Z,988.58
2023-03-13T05:25:13.010Z,988.59
2023-03-13T05:26:13.027Z,988.55
2023-03-13T05:27:13.004Z,988.64
2023-03-13T05:28:12.984Z,988.60
2023-03-13T05:29:12.966Z,988.60
2023-03-13T05:30:12.946Z,988.54
2023-03-13T05:31:13.028Z,988.47
2023-03-13T05:32:12.933Z,988.43
2023-03-13T05:33:12.906Z,988.43
2023-03-13T05:34:12.933Z,988.35
2023-03-13T05:35:12.873Z,988.24
2023-03-13T05:36:12.934Z,988.23
2023-03-13T05:37:12.843Z,988.25
2023-03-13T05:38:12.849Z,988.16
2023-03-13T05:39:12.823Z,988.15
2023-03-13T05:40:12.815Z,988.19
2023-03-13T05:41:12.791Z,988.14
2023-03-13T05:42:12.817Z,988.13
2023-03-13T05:43:12.771Z,988.08
2023-03-13T05:44:12.774Z,988.05
2023-03-13T05:45:12.739Z,988.02
2023-03-13T05:46:12.786Z,988.04
2023-03-13T05:47:12.741Z,987.99
2023-03-13T05:48:12.691Z,988.05
2023-03-13T05:49:12.698Z,988.06
2023-03-13T05:50:12.695Z,988.09
2023-03-13T05:51:12.660Z,988.00
2023-03-13T05:52:12.660Z,988.04
2023-03-13T05:53:12.651Z,988.01
2023-03-13T05:54:15.296Z,988.00
2023-03-13T05:55:12.610Z,987.98
2023-03-13T05:56:12.588Z,987.93
2023-03-13T05:57:12.598Z,987.93
2023-03-13T05:58:12.567Z,987.89
2023-03-13T05:59:12.553Z,987.90
2023-03-13T06:00:12.537Z,987.92
2023-03-13T06:01:12.525Z,987.97
2023-03-13T06:02:12.536Z,987.94
2023-03-13T06:03:14.297Z,988.01
2023-03-13T06:04:12.631Z,988.01
2023-03-13T06:05:12.465Z,988.02
2023-03-13T06:06:12.458Z,988.06
2023-03-13T06:07:12.455Z,988.03
2023-03-13T06:08:12.422Z,988.02
2023-03-13T06:09:12.415Z,988.07
2023-03-13T06:10:12.423Z,988.04
2023-03-13T06:11:12.382Z,988.03
2023-03-13T06:12:12.397Z,988.08
2023-03-13T06:13:19.671Z,988.00
2023-03-13T06:14:13.367Z,988.08
2023-03-13T06:15:12.523Z,988.02
2023-03-13T06:16:12.382Z,988.01
2023-03-13T06:17:12.301Z,988.02
2023-03-13T06:18:12.317Z,988.05
2023-03-13T06:19:12.264Z,988.08
2023-03-13T06:20:12.253Z,988.08
2023-03-13T06:21:12.270Z,988.03
2023-03-13T06:22:12.243Z,988.03
2023-03-13T06:23:12.283Z,988.11
2023-03-13T06:24:12.215Z,988.06
2023-03-13T06:25:12.312Z,988.01
2023-03-13T06:26:12.194Z,987.95
2023-03-13T06:27:12.220Z,988.09
2023-03-13T06:28:12.184Z,988.02
2023-03-13T06:29:12.166Z,988.04
2023-03-13T06:30:12.142Z,987.99
2023-03-13T06:31:12.134Z,988.02
2023-03-13T06:32:12.229Z,988.02
2023-03-13T06:33:12.169Z,988.05
2023-03-13T06:34:12.116Z,988.07
2023-03-13T06:35:12.076Z,988.07
2023-03-13T06:36:12.149Z,988.08
2023-03-13T06:37:12.050Z,988.03
2023-03-13T06:38:12.054Z,988.03
2023-03-13T06:39:14.016Z,988.02
2023-03-13T06:40:12.022Z,987.99
2023-03-13T06:41:12.004Z,987.99
2023-03-13T06:42:11.985Z,988.02
2023-03-13T06:43:11.989Z,988.10
2023-03-13T06:44:11.966Z,988.14
2023-03-13T06:45:11.945Z,988.19
2023-03-13T06:46:13.424Z,988.22
2023-03-13T06:47:14.380Z,988.28
2023-03-13T06:48:12.583Z,988.28
2023-03-13T06:49:11.885Z,988.34
2023-03-13T06:50:11.886Z,988.28
2023-03-13T06:51:11.874Z,988.27
2023-03-13T06:52:11.859Z,988.24
2023-03-13T06:53:11.855Z,988.27
2023-03-13T06:54:12.385Z,988.31
2023-03-13T06:55:12.098Z,988.23
2023-03-13T06:56:11.806Z,988.32
2023-03-13T06:57:15.005Z,988.28
2023-03-13T06:58:21.764Z,988.21
2023-03-13T06:59:12.756Z,988.20
2023-03-13T07:00:11.744Z,988.21
2023-03-13T07:01:11.815Z,988.14
2023-03-13T07:02:11.747Z,988.14
2023-03-13T07:03:11.716Z,988.10
2023-03-13T07:04:11.712Z,988.25
2023-03-13T07:05:11.680Z,988.15
2023-03-13T07:06:11.684Z,988.15
2023-03-13T07:07:22.149Z,988.11
2023-03-13T07:08:12.670Z,988.14
2023-03-13T07:09:11.641Z,988.10
2023-03-13T07:10:11.638Z,988.04
2023-03-13T07:11:11.595Z,988.06
2023-03-13T07:12:11.630Z,988.02
2023-03-13T07:13:11.591Z,987.96
2023-03-13T07:14:16.858Z,987.89
2023-03-13T07:15:12.560Z,988.00
2023-03-13T07:16:11.597Z,987.90
2023-03-13T07:17:11.538Z,987.97
2023-03-13T07:18:11.593Z,987.95
2023-03-13T07:19:11.503Z,988.07
2023-03-13T07:20:11.526Z,988.05
2023-03-13T07:21:11.486Z,988.06
2023-03-13T07:22:11.464Z,988.12
2023-03-13T07:23:11.452Z,988.12
2023-03-13T07:24:11.486Z,988.13
2023-03-13T07:25:11.437Z,988.14
2023-03-13T07:26:11.699Z,988.17
2023-03-13T07:27:11.443Z,988.16
2023-03-13T07:28:11.408Z,988.27
2023-03-13T07:29:11.375Z,988.20
2023-03-13T07:30:11.376Z,988.36
2023-03-13T07:31:11.377Z,988.31
2023-03-13T07:32:11.376Z,988.33
2023-03-13T07:33:11.333Z,988.27
2023-03-13T07:34:11.299Z,988.33
2023-03-13T07:35:11.295Z,988.33
2023-03-13T07:36:11.378Z,988.22
2023-03-13T07:37:11.266Z,988.37
2023-03-13T07:38:11.294Z,988.15
2023-03-13T07:39:11.225Z,988.40
2023-03-13T07:40:11.225Z,988.22
2023-03-13T07:41:11.204Z,988.38
2023-03-13T07:42:11.258Z,988.38
2023-03-13T07:43:11.174Z,988.43
2023-03-13T07:44:11.176Z,988.46
2023-03-13T07:45:11.154Z,988.43
2023-03-13T07:46:11.736Z,988.50
2023-03-13T07:47:11.572Z,988.40
2023-03-13T07:48:11.469Z,988.43
2023-03-13T07:49:11.097Z,988.42
2023-03-13T07:50:11.209Z,988.48
2023-03-13T07:51:11.064Z,988.39
2023-03-13T07:52:11.634Z,988.42
2023-03-13T07:53:14.173Z,988.43
2023-03-13T07:54:11.755Z,988.47
2023-03-13T07:55:11.025Z,988.24
2023-03-13T07:56:11.368Z,988.36
2023-03-13T07:57:11.000Z,988.35
2023-03-13T07:58:11.356Z,988.36
2023-03-13T07:59:11.580Z,988.30
2023-03-13T08:00:10.964Z,988.32
2023-03-13T08:01:11.197Z,988.33
2023-03-13T08:02:11.072Z,988.33
2023-03-13T08:03:11.192Z,988.40
2023-03-13T08:04:11.360Z,988.40
2023-03-13T08:05:10.913Z,988.43
2023-03-13T08:06:10.886Z,988.39
2023-03-13T08:07:10.855Z,988.47
2023-03-13T08:08:10.887Z,988.47
2023-03-13T08:09:11.308Z,988.50
2023-03-13T08:10:10.829Z,988.52
2023-03-13T08:11:10.819Z,988.57
2023-03-13T08:12:10.810Z,988.56
2023-03-13T08:13:10.797Z,988.55
2023-03-13T08:14:11.063Z,988.57
2023-03-13T08:15:11.026Z,988.61
2023-03-13T08:16:11.461Z,988.71
2023-03-13T08:17:10.723Z,988.63
2023-03-13T08:18:10.742Z,988.66
2023-03-13T08:19:10.734Z,988.61
2023-03-13T08:20:10.692Z,988.55
2023-03-13T08:21:10.665Z,988.59
2023-03-13T08:22:10.799Z,988.59
2023-03-13T08:23:10.642Z,988.56
2023-03-13T08:24:10.685Z,988.54
2023-03-13T08:25:10.609Z,988.56
2023-03-13T08:26:10.602Z,988.50
2023-03-13T08:27:10.589Z,988.48
2023-03-13T08:28:11.386Z,988.51
2023-03-13T08:29:10.577Z,988.54
2023-03-13T08:30:10.549Z,988.52
2023-03-13T08:31:10.581Z,988.58
2023-03-13T08:32:10.530Z,988.44
2023-03-13T08:33:10.499Z,988.43
2023-03-13T08:34:10.500Z,988.39
2023-03-13T08:35:10.502Z,988.44
2023-03-13T08:36:10.470Z,988.41
2023-03-13T08:37:10.460Z,988.36
2023-03-13T08:38:10.446Z,988.32
2023-03-13T08:39:10.420Z,988.25
2023-03-13T08:40:10.451Z,988.23
2023-03-13T08:41:10.399Z,988.28
2023-03-13T08:42:10.402Z,988.21
2023-03-13T08:43:10.406Z,988.19
2023-03-13T08:44:10.397Z,988.19
2023-03-13T08:45:10.338Z,988.27
2023-03-13T08:46:10.399Z,988.16
2023-03-13T08:47:10.322Z,988.17
2023-03-13T08:48:10.316Z,988.14
2023-03-13T08:49:10.330Z,988.18
2023-03-13T08:50:10.298Z,988.19
2023-03-13T08:51:10.268Z,988.16
2023-03-13T08:52:10.322Z,988.10
2023-03-13T08:53:10.276Z,988.15
2023-03-13T08:54:10.251Z,988.11
2023-03-13T08:55:11.243Z,988.14
2023-03-13T08:56:10.219Z,988.13
2023-03-13T08:57:10.446Z,988.18
2023-03-13T08:58:10.196Z,988.13
2023-03-13T08:59:10.221Z,988.13
2023-03-13T09:00:10.200Z,988.13
2023-03-13T09:01:10.153Z,988.17
2023-03-13T09:02:10.225Z,988.14
2023-03-13T09:03:10.165Z,988.06
2023-03-13T09:04:10.195Z,988.04
2023-03-13T09:05:10.117Z,988.08
2023-03-13T09:06:10.075Z,988.07
2023-03-13T09:07:10.120Z,987.96
2023-03-13T09:08:12.283Z,988.09
2023-03-13T09:09:14.195Z,987.96
2023-03-13T09:10:10.282Z,987.91
2023-03-13T09:11:10.030Z,987.93
2023-03-13T09:12:24.550Z,987.95
2023-03-13T09:13:10.991Z,988.05
2023-03-13T09:14:10.041Z,987.96
2023-03-13T09:15:09.971Z,987.91
2023-03-13T09:16:09.999Z,987.88
2023-03-13T09:17:09.932Z,987.87
2023-03-13T09:18:09.970Z,987.81
2023-03-13T09:19:09.929Z,987.77
2023-03-13T09:20:09.910Z,987.78
2023-03-13T09:21:09.923Z,987.86
2023-03-13T09:22:09.878Z,987.84
2023-03-13T09:23:09.856Z,987.84
2023-03-13T09:24:12.825Z,987.84
2023-03-13T09:25:09.851Z,987.90
2023-03-13T09:26:09.874Z,988.01
2023-03-13T09:27:09.811Z,987.98
2023-03-13T09:28:09.803Z,987.89
2023-03-13T09:29:09.791Z,987.95
2023-03-13T09:30:09.760Z,987.94
2023-03-13T09:31:09.795Z,987.95
2023-03-13T09:32:12.227Z,987.94
2023-03-13T09:33:09.730Z,987.85
2023-03-13T09:34:09.749Z,987.96
2023-03-13T09:35:09.699Z,987.92
2023-03-13T09:36:09.762Z,988.01
2023-03-13T09:37:09.681Z,987.99
2023-03-13T09:38:09.648Z,987.96
2023-03-13T09:39:09.913Z,987.96
2023-03-13T09:40:09.628Z,988.03
2023-03-13T09:41:09.619Z,987.99
2023-03-13T09:42:09.598Z,987.99
2023-03-13T09:43:09.597Z,988.05
2023-03-13T09:44:09.919Z,988.01
2023-03-13T09:45:09.563Z,987.97
2023-03-13T09:46:09.675Z,987.97
2023-03-13T09:47:09.540Z,988.07
2023-03-13T09:48:09.527Z,987.87
2023-03-13T09:49:09.512Z,987.96
2023-03-13T09:50:09.519Z,987.91
2023-03-13T09:51:09.492Z,987.87
2023-03-13T09:52:09.477Z,987.93
2023-03-13T09:53:09.460Z,987.89
2023-03-13T09:54:09.498Z,987.98
2023-03-13T09:55:09.589Z,987.94
2023-03-13T09:56:09.409Z,987.96
2023-03-13T09:57:09.409Z,987.95
2023-03-13T09:58:09.394Z,987.89
2023-03-13T09:59:10.787Z,987.93
2023-03-13T10:00:09.365Z,987.91
2023-03-13T10:01:09.444Z,987.98
2023-03-13T10:02:09.326Z,987.89
2023-03-13T10:03:09.318Z,987.89
2023-03-13T10:04:09.371Z,987.91
2023-03-13T10:05:09.325Z,987.87
2023-03-13T10:06:09.282Z,987.86
2023-03-13T10:07:09.274Z,987.83
2023-03-13T10:08:09.256Z,987.87
2023-03-13T10:09:09.239Z,987.83
2023-03-13T10:10:09.245Z,987.80
2023-03-13T10:11:09.273Z,987.86
2023-03-13T10:12:09.192Z,987.82
2023-03-13T10:13:09.185Z,987.80
2023-03-13T10:14:09.355Z,987.68
2023-03-13T10:15:09.221Z,987.68
2023-03-13T10:16:09.211Z,987.69
2023-03-13T10:17:09.129Z,987.81
2023-03-13T10:18:09.121Z,987.81
2023-03-13T10:19:09.120Z,987.84
2023-03-13T10:20:09.123Z,987.82
2023-03-13T10:21:09.137Z,987.81
2023-03-13T10:22:09.121Z,987.84
2023-03-13T10:23:09.044Z,987.79
2023-03-13T10:24:09.046Z,987.77
2023-03-13T10:25:09.069Z,987.81
2023-03-13T10:26:09.006Z,987.77
2023-03-13T10:27:09.004Z,987.66
2023-03-13T10:28:08.995Z,987.62
2023-03-13T10:29:08.997Z,987.57
2023-03-13T10:30:09.007Z,987.59
2023-03-13T10:31:09.027Z,987.55
2023-03-13T10:32:08.996Z,987.67
2023-03-13T10:33:08.989Z,987.70
2023-03-13T10:34:08.939Z,987.70
2023-03-13T10:35:08.938Z,987.68
2023-03-13T10:36:09.007Z,987.75
2023-03-13T10:37:08.887Z,987.68
2023-03-13T10:38:08.922Z,987.63
2023-03-13T10:39:08.887Z,987.64
2023-03-13T10:40:08.901Z,987.67
2023-03-13T10:41:08.864Z,987.62
2023-03-13T10:42:08.818Z,987.60
2023-03-13T10:43:08.839Z,987.61
2023-03-13T10:44:08.789Z,987.61
2023-03-13T10:45:08.791Z,987.62
2023-03-13T10:46:08.804Z,987.55
2023-03-13T10:47:08.782Z,987.59
2023-03-13T10:48:08.778Z,987.59
2023-03-13T10:49:08.740Z,987.58
2023-03-13T10:50:08.756Z,987.48
2023-03-13T10:51:08.756Z,987.48
2023-03-13T10:52:08.690Z,987.44
2023-03-13T10:53:08.689Z,987.42
2023-03-13T10:54:08.650Z,987.38
2023-03-13T10:55:08.674Z,987.47
2023-03-13T10:56:08.619Z,987.39
2023-03-13T10:57:08.617Z,987.41
2023-03-13T10:58:08.579Z,987.42
2023-03-13T10:59:08.572Z,987.43
2023-03-13T11:00:08.560Z,987.38
2023-03-13T11:01:08.571Z,987.39
2023-03-13T11:02:08.566Z,987.35
2023-03-13T11:03:08.645Z,987.37
2023-03-13T11:04:08.499Z,987.33
2023-03-13T11:05:08.499Z,987.35
2023-03-13T11:06:08.495Z,987.32
2023-03-13T11:07:08.482Z,987.32
2023-03-13T11:08:08.499Z,987.32
2023-03-13T11:09:08.435Z,987.26
2023-03-13T11:10:08.422Z,987.32
2023-03-13T11:11:08.434Z,987.25
2023-03-13T11:12:08.442Z,987.29
2023-03-13T11:13:08.392Z,987.32
2023-03-13T11:14:08.371Z,987.32
2023-03-13T11:15:08.397Z,987.26
2023-03-13T11:16:08.443Z,987.24
2023-03-13T11:17:08.333Z,987.25
2023-03-13T11:18:08.321Z,987.32
2023-03-13T11:19:08.309Z,987.21
2023-03-13T11:20:08.280Z,987.25
2023-03-13T11:21:17.718Z,987.24
2023-03-13T11:22:09.282Z,987.23
2023-03-13T11:23:08.264Z,987.19
2023-03-13T11:24:08.244Z,987.19
2023-03-13T11:25:08.229Z,987.18
2023-03-13T11:26:08.219Z,987.16
2023-03-13T11:27:08.375Z,987.15
2023-03-13T11:28:08.222Z,987.17
2023-03-13T11:29:08.204Z,987.15
2023-03-13T11:30:08.158Z,987.12
2023-03-13T11:31:08.228Z,987.15
2023-03-13T11:32:08.234Z,987.16
2023-03-13T11:33:08.107Z,987.13
2023-03-13T11:34:08.127Z,987.15
2023-03-13T11:35:08.145Z,987.14
2023-03-13T11:36:08.190Z,987.08
2023-03-13T11:37:08.063Z,987.11
2023-03-13T11:38:08.167Z,987.08
2023-03-13T11:39:08.055Z,987.05
2023-03-13T11:40:08.022Z,987.06
2023-03-13T11:41:08.021Z,987.07
2023-03-13T11:42:08.013Z,987.03
2023-03-13T11:43:23.645Z,986.99
2023-03-13T11:44:08.982Z,986.97
2023-03-13T11:45:07.966Z,986.88
2023-03-13T11:46:08.122Z,986.81
2023-03-13T11:47:08.095Z,986.80
2023-03-13T11:48:07.938Z,986.76
2023-03-13T11:49:07.922Z,986.75
2023-03-13T11:50:07.896Z,986.68
2023-03-13T11:51:07.896Z,986.69
2023-03-13T11:52:07.884Z,986.65
2023-03-13T11:53:07.893Z,986.62
2023-03-13T11:54:07.845Z,986.56
2023-03-13T11:55:07.826Z,986.58
2023-03-13T11:56:07.814Z,986.54
2023-03-13T11:57:07.805Z,986.53
2023-03-13T11:58:07.812Z,986.50
2023-03-13T11:59:07.773Z,986.47
2023-03-13T12:00:07.771Z,986.44
2023-03-13T12:01:07.795Z,986.46
2023-03-13T12:02:07.798Z,986.39
2023-03-13T12:03:07.770Z,986.38
2023-03-13T12:04:07.730Z,986.38
2023-03-13T12:05:07.788Z,986.38
2023-03-13T12:06:15.859Z,986.40
2023-03-13T12:07:08.696Z,986.42
2023-03-13T12:08:07.666Z,986.39
2023-03-13T12:09:07.645Z,986.42
2023-03-13T12:10:07.625Z,986.42
2023-03-13T12:11:07.614Z,986.42
2023-03-13T12:12:07.605Z,986.40
2023-03-13T12:13:07.607Z,986.38
2023-03-13T12:14:07.790Z,986.32
2023-03-13T12:15:07.565Z,986.32
2023-03-13T12:16:07.627Z,986.27
2023-03-13T12:17:07.534Z,986.24
2023-03-13T12:18:07.571Z,986.18
2023-03-13T12:19:07.504Z,986.22
2023-03-13T12:20:07.505Z,986.21
2023-03-13T12:21:07.488Z,986.14
2023-03-13T12:22:07.488Z,986.16
2023-03-13T12:23:07.485Z,986.10
2023-03-13T12:24:07.501Z,986.11
2023-03-13T12:25:07.550Z,986.13
2023-03-13T12:26:07.450Z,986.13
2023-03-13T12:27:07.425Z,986.12
2023-03-13T12:28:07.496Z,986.11